Time;durP1;ratioP1;P1;durP2;ratioP2;P2;SDS_P1;SDS_P2;PMS_P1;PMS_P2;Temp;Humidity;BMP_temperature;BMP_pressure;BME280_temperature;BME280_humidity;BME280_pressure;Samples;Min_cycle;Max_cycle;Signal;HPM_P1;HPM_P2
2022/08/31 00:06:11;;;;;;;8.90;3.72;;;;;;;22.27;59.19;99949.19;4429403;32;34762;-79
2022/08/31 00:08:58;;;;;;;6.85;4.22;;;;;;;21.83;60.79;99950.00;4431306;32;33812;-79
2022/08/31 00:11:29;;;;;;;7.85;4.25;;;;;;;22.26;59.43;99947.44;4433273;32;34170;-79
2022/08/31 00:13:59;;;;;;;7.03;3.97;;;;;;;22.45;58.58;99951.81;4428164;32;34766;-78
2022/08/31 00:16:29;;;;;;;7.35;3.83;;;;;;;22.57;58.17;99950.91;4427927;32;33547;-79
2022/08/31 00:18:56;;;;;;;10.25;4.03;;;;;;;22.67;58.08;99952.66;4435460;32;34543;-79
2022/08/31 00:21:25;;;;;;;9.45;3.67;;;;;;;23.28;56.46;99948.97;4437844;32;33174;-80
2022/08/31 00:23:54;;;;;;;10.25;4.32;;;;;;;23.56;55.20;99951.44;4429012;32;34899;-79
2022/08/31 00:26:22;;;;;;;11.38;4.45;;;;;;;23.24;55.86;99949.88;4422830;32;34558;-81
2022/08/31 00:28:50;;;;;;;7.57;3.97;;;;;;;22.02;59.35;99951.81;4435088;32;35549;-79
2022/08/31 00:31:18;;;;;;;8.55;4.15;;;;;;;22.84;56.69;99960.53;4433268;32;33129;-78
2022/08/31 00:33:51;;;;;;;5.87;3.65;;;;;;;22.47;57.67;99954.47;4432574;32;33841;-79
2022/08/31 00:36:22;;;;;;;7.55;4.70;;;;;;;22.28;58.61;99953.59;4434555;32;32698;-81
2022/08/31 00:38:50;;;;;;;10.20;4.35;;;;;;;21.59;60.24;99951.72;4436609;32;34690;-78
2022/08/31 00:41:24;;;;;;;9.88;4.82;;;;;;;21.93;59.61;99951.78;4431365;32;33749;-80
2022/08/31 00:43:53;;;;;;;6.85;4.82;;;;;;;21.77;59.98;99954.41;4427551;32;34407;-79
2022/08/31 00:46:24;;;;;;;8.65;4.78;;;;;;;21.56;61.13;99952.63;4436448;32;34717;-80
2022/08/31 00:48:56;;;;;;;10.07;4.62;;;;;;;21.60;61.04;99949.09;4435043;32;33723;-77
2022/08/31 00:51:27;;;;;;;12.05;4.70;;;;;;;21.83;60.46;99966.72;4434804;32;33294;-81
2022/08/31 00:53:55;;;;;;;9.20;4.62;;;;;;;21.44;62.11;99962.22;4435947;32;33641;-79
2022/08/31 00:56:22;;;;;;;7.18;4.32;;;;;;;21.75;61.02;99964.09;4429812;32;33936;-81
2022/08/31 00:58:51;;;;;;;7.87;4.55;;;;;;;21.32;63.23;99958.62;4432608;32;33630;-78
2022/08/31 01:01:21;;;;;;;8.43;3.95;;;;;;;21.18;63.38;99970.87;4413664;32;33995;-80
2022/08/31 01:03:49;;;;;;;8.77;3.85;;;;;;;21.19;63.38;99968.28;4435900;32;33838;-79
2022/08/31 01:06:17;;;;;;;6.87;4.05;;;;;;;21.55;62.05;99955.25;4430548;32;34464;-79
2022/08/31 01:08:45;;;;;;;7.32;3.97;;;;;;;21.57;62.05;99969.28;4431770;32;34203;-80
2022/08/31 01:11:13;;;;;;;9.18;4.57;;;;;;;21.87;60.98;99963.22;4425943;32;33728;-81
2022/08/31 01:13:43;;;;;;;8.27;4.05;;;;;;;21.79;61.30;99971.13;4431532;32;34950;-78
2022/08/31 01:16:19;;;;;;;7.35;4.45;;;;;;;21.34;62.89;99967.47;4433838;32;33839;-79
2022/08/31 01:18:47;;;;;;;6.05;3.78;;;;;;;21.66;61.75;99958.78;4433295;32;33796;-78
2022/08/31 01:21:26;;;;;;;9.18;4.47;;;;;;;21.83;61.29;99965.81;4438459;32;34097;-80
2022/08/31 01:23:56;;;;;;;9.60;4.30;;;;;;;21.60;62.54;99966.69;4427216;32;33814;-80
2022/08/31 01:26:26;;;;;;;8.95;4.28;;;;;;;21.47;62.78;99972.78;4427713;32;34679;-78
2022/08/31 01:28:57;;;;;;;8.02;4.65;;;;;;;21.33;63.17;99965.69;4423807;32;34163;-80
2022/08/31 01:31:30;;;;;;;10.02;4.32;;;;;;;20.91;64.91;99983.03;4436279;32;32186;-77
2022/08/31 01:33:58;;;;;;;8.93;4.82;;;;;;;20.46;67.05;99984.47;4428686;32;33962;-80
2022/08/31 01:36:26;;;;;;;9.75;4.85;;;;;;;21.05;65.05;99984.88;4429772;32;33851;-79
2022/08/31 01:38:55;;;;;;;9.48;4.57;;;;;;;19.95;68.87;99985.78;4435359;32;34018;-79
2022/08/31 01:41:23;;;;;;;9.38;5.00;;;;;;;20.20;69.27;99982.53;4433812;32;34641;-78
2022/08/31 01:43:51;;;;;;;8.32;4.95;;;;;;;21.02;65.41;99968.19;4427925;32;34607;-77
2022/08/31 01:46:19;;;;;;;9.65;5.25;;;;;;;21.05;65.09;99963.81;4420385;32;34721;-80
2022/08/31 01:48:48;;;;;;;7.87;4.00;;;;;;;21.18;64.68;99976.16;4434847;32;33966;-79
2022/08/31 01:51:18;;;;;;;7.97;4.60;;;;;;;20.72;66.75;99975.91;4434236;32;33900;-80
2022/08/31 01:53:47;;;;;;;8.48;4.55;;;;;;;21.13;65.06;99973.50;4435175;32;33828;-77
2022/08/31 01:56:27;;;;;;;8.63;4.95;;;;;;;20.57;67.21;99982.81;4436751;32;33879;-80
2022/08/31 01:58:56;;;;;;;8.98;4.85;;;;;;;20.83;65.93;99963.69;4427145;32;33979;-79
2022/08/31 02:01:28;;;;;;;8.27;4.47;;;;;;;20.50;67.26;99977.50;4433911;32;33528;-79
2022/08/31 02:04:02;;;;;;;8.30;4.68;;;;;;;20.16;68.83;99980.72;4430337;32;34569;-77
2022/08/31 02:06:31;;;;;;;8.85;4.72;;;;;;;20.15;69.15;99984.22;4429245;32;33730;-80
2022/08/31 02:08:59;;;;;;;9.15;4.78;;;;;;;20.26;68.36;99981.66;4435845;32;34671;-79
2022/08/31 02:11:27;;;;;;;7.85;5.03;;;;;;;19.63;70.79;99978.44;4436300;32;33430;-78
2022/08/31 02:13:55;;;;;;;8.20;4.65;;;;;;;20.37;67.84;99977.38;4431997;32;33526;-80
2022/08/31 02:16:23;;;;;;;9.10;4.90;;;;;;;20.40;67.77;99984.44;4430294;32;34640;-78
2022/08/31 02:18:51;;;;;;;9.43;4.50;;;;;;;20.67;66.76;99973.25;4430434;32;33710;-80
2022/08/31 02:21:19;;;;;;;8.95;5.07;;;;;;;20.52;67.55;99974.00;4436387;32;33928;-81
2022/08/31 02:23:47;;;;;;;8.15;4.78;;;;;;;19.72;72.22;99975.03;4428556;32;33896;-80
2022/08/31 02:26:14;;;;;;;8.65;5.45;;;;;;;18.96;74.58;99963.59;4431687;32;34744;-80
2022/08/31 02:28:43;;;;;;;7.55;5.15;;;;;;;18.89;74.94;99966.12;4431985;32;33624;-78
2022/08/31 02:31:11;;;;;;;8.18;5.00;;;;;;;18.83;75.08;99953.81;4431863;32;32931;-78
2022/08/31 02:33:42;;;;;;;9.55;5.22;;;;;;;19.28;73.13;99960.53;4434612;32;33070;-77
2022/08/31 02:36:10;;;;;;;8.10;4.87;;;;;;;19.60;71.85;99967.88;4432743;32;33902;-79
2022/08/31 02:38:38;;;;;;;8.85;4.82;;;;;;;19.12;74.27;99959.44;4434923;32;32505;-79
2022/08/31 02:41:06;;;;;;;8.55;5.18;;;;;;;19.01;75.32;99967.19;4431168;32;33378;-78
2022/08/31 02:43:34;;;;;;;8.85;5.00;;;;;;;19.85;71.95;99974.31;4425441;32;33716;-77
2022/08/31 02:46:01;;;;;;;9.13;5.57;;;;;;;20.76;67.25;99972.41;4432912;32;33909;-79
2022/08/31 02:48:31;;;;;;;8.02;4.97;;;;;;;20.81;66.68;99970.72;4435062;32;34600;-77
2022/08/31 02:51:06;;;;;;;6.53;4.62;;;;;;;20.45;68.06;99960.78;4431467;32;33537;-80
2022/08/31 02:53:35;;;;;;;10.40;4.75;;;;;;;20.19;69.02;99964.09;4436690;32;34615;-80
2022/08/31 02:56:04;;;;;;;9.60;5.40;;;;;;;20.22;69.25;99965.00;4435528;32;32557;-81
2022/08/31 02:58:31;;;;;;;10.52;4.78;;;;;;;20.52;67.70;99962.59;4422803;32;32075;-79
2022/08/31 03:00:59;;;;;;;8.15;4.60;;;;;;;19.63;71.85;99970.56;4433992;32;33469;-80
2022/08/31 03:03:27;;;;;;;9.52;4.62;;;;;;;19.61;71.36;99964.41;4438555;32;33862;-79
2022/08/31 03:05:54;;;;;;;7.00;4.60;;;;;;;19.79;70.48;99961.97;4435151;32;33709;-81
2022/08/31 03:08:23;;;;;;;9.88;5.07;;;;;;;19.30;71.73;99963.19;4437370;32;34374;-78
2022/08/31 03:10:50;;;;;;;7.05;4.50;;;;;;;19.37;71.67;99968.53;4436775;32;33428;-80
2022/08/31 03:13:18;;;;;;;9.45;5.35;;;;;;;19.54;70.90;99963.44;4438242;32;33975;-81
2022/08/31 03:15:47;;;;;;;7.47;4.47;;;;;;;19.55;70.49;99969.59;4430273;32;33737;-79
2022/08/31 03:18:15;;;;;;;8.40;4.87;;;;;;;19.74;69.75;99968.06;4428966;32;33458;-77
2022/08/31 03:20:42;;;;;;;8.48;5.20;;;;;;;19.34;71.49;99965.84;4437221;32;33191;-77
2022/08/31 03:23:11;;;;;;;9.77;5.10;;;;;;;19.15;72.87;99969.13;4438875;32;33475;-79
2022/08/31 03:25:38;;;;;;;11.20;5.37;;;;;;;18.90;74.15;99966.16;4431434;32;33542;-77
2022/08/31 03:28:07;;;;;;;9.05;4.85;;;;;;;18.77;75.01;99967.69;4426531;32;33967;-81
2022/08/31 03:30:35;;;;;;;7.57;4.87;;;;;;;18.65;75.95;99968.41;4436956;32;33886;-80
2022/08/31 03:33:05;;;;;;;11.43;5.50;;;;;;;18.27;77.78;99976.56;4433654;32;34107;-78
2022/08/31 03:35:33;;;;;;;8.15;5.00;;;;;;;18.40;77.38;99975.00;4429311;32;33834;-79
2022/08/31 03:38:02;;;;;;;7.78;5.32;;;;;;;18.15;78.89;99972.84;4432742;32;34093;-80
2022/08/31 03:40:29;;;;;;;8.52;4.95;;;;;;;18.27;78.12;99981.81;4434468;32;34434;-79
2022/08/31 03:42:57;;;;;;;10.15;5.60;;;;;;;18.62;76.21;99973.62;4421017;32;32465;-80
2022/08/31 03:45:26;;;;;;;12.13;5.82;;;;;;;18.64;75.98;99973.66;4435234;32;33763;-78
2022/08/31 03:47:54;;;;;;;8.98;5.10;;;;;;;18.48;76.51;99975.12;4433931;32;33994;-80
2022/08/31 03:50:23;;;;;;;11.68;5.78;;;;;;;19.14;73.72;99977.84;4428731;32;34175;-80
2022/08/31 03:52:53;;;;;;;9.40;5.55;;;;;;;19.19;72.97;99970.91;4438043;32;33782;-78
2022/08/31 03:55:21;;;;;;;7.75;5.30;;;;;;;19.14;72.94;99968.25;4436897;32;35501;-78
2022/08/31 03:57:50;;;;;;;9.63;5.35;;;;;;;19.27;72.53;99961.38;4437148;32;33809;-81
2022/08/31 04:00:18;;;;;;;9.05;5.10;;;;;;;19.63;70.76;99965.28;4432241;32;33357;-80
2022/08/31 04:02:46;;;;;;;9.32;5.60;;;;;;;19.43;71.37;99965.97;4433297;32;34627;-80
2022/08/31 04:05:20;;;;;;;12.50;5.55;;;;;;;19.13;72.52;99960.34;4436157;32;33082;-80
2022/08/31 04:07:59;;;;;;;10.13;5.18;;;;;;;18.39;75.66;99972.38;4427218;32;33488;-80
2022/08/31 04:10:31;;;;;;;11.70;4.97;;;;;;;18.66;74.94;99974.53;4436033;32;32829;-78
2022/08/31 04:13:05;;;;;;;9.43;5.60;;;;;;;18.65;75.34;99978.87;4437195;32;33644;-79
2022/08/31 04:15:33;;;;;;;10.93;5.68;;;;;;;18.32;76.85;99973.13;4428633;32;34614;-79
2022/08/31 04:18:03;;;;;;;9.27;5.07;;;;;;;18.37;76.04;99976.69;4436438;32;32417;-79
2022/08/31 04:20:36;;;;;;;8.30;5.55;;;;;;;18.64;74.39;99981.50;4428656;32;33997;-79
2022/08/31 04:23:03;;;;;;;8.85;5.07;;;;;;;18.57;75.12;99983.16;4433126;32;33909;-78
2022/08/31 04:25:36;;;;;;;10.02;4.93;;;;;;;18.85;74.01;99975.69;4434482;32;34427;-78
2022/08/31 04:28:04;;;;;;;9.07;5.53;;;;;;;18.67;73.99;99978.91;4431270;32;34156;-78
2022/08/31 04:30:32;;;;;;;8.95;5.55;;;;;;;18.98;73.01;99984.63;4431509;32;33543;-79
2022/08/31 04:33:00;;;;;;;9.27;5.97;;;;;;;19.08;71.93;99977.75;4433278;32;33073;-79
2022/08/31 04:35:28;;;;;;;10.73;5.72;;;;;;;19.22;71.20;99970.97;4435466;32;32797;-78
2022/08/31 04:37:56;;;;;;;7.87;4.87;;;;;;;19.47;70.21;99973.84;4433593;32;33579;-78
2022/08/31 04:40:24;;;;;;;7.75;5.32;;;;;;;19.15;71.09;99971.75;4427984;32;33381;-78
2022/08/31 04:42:53;;;;;;;10.57;5.32;;;;;;;18.62;74.44;99976.25;4430705;32;32227;-80
2022/08/31 04:45:21;;;;;;;10.50;5.85;;;;;;;18.72;74.08;99976.38;4434951;32;33363;-78
2022/08/31 04:47:49;;;;;;;11.38;5.72;;;;;;;18.90;73.01;99974.03;4423439;32;34563;-80
2022/08/31 04:50:16;;;;;;;9.90;5.40;;;;;;;19.00;71.60;99981.16;4435396;32;34142;-80
2022/08/31 04:52:53;;;;;;;11.10;5.30;;;;;;;18.93;71.88;99987.22;4432715;32;33891;-80
2022/08/31 04:55:31;;;;;;;8.90;5.40;;;;;;;19.50;70.30;99990.53;4426324;32;33992;-77
2022/08/31 04:57:59;;;;;;;10.13;5.40;;;;;;;19.76;68.84;99985.63;4424785;32;33928;-78
2022/08/31 05:00:27;;;;;;;11.40;5.43;;;;;;;20.44;66.02;99980.97;4429025;32;33429;-79
2022/08/31 05:02:56;;;;;;;7.28;4.85;;;;;;;20.41;65.77;99976.53;4430082;32;33572;-80
2022/08/31 05:05:24;;;;;;;8.63;4.75;;;;;;;20.40;65.84;99982.69;4430518;32;34753;-79
2022/08/31 05:07:52;;;;;;;9.40;4.95;;;;;;;20.16;66.84;99982.47;4432477;32;33885;-81
2022/08/31 05:10:20;;;;;;;8.13;4.95;;;;;;;20.44;65.96;99975.69;4435143;32;33121;-83
2022/08/31 05:12:50;;;;;;;8.80;4.80;;;;;;;20.62;65.32;99985.50;4435579;32;33376;-78
2022/08/31 05:15:19;;;;;;;7.55;5.25;;;;;;;20.23;67.26;99987.81;4428345;32;34125;-77
2022/08/31 05:17:47;;;;;;;8.95;5.15;;;;;;;20.18;68.28;99983.38;4433218;32;34088;-76
2022/08/31 05:20:15;;;;;;;9.55;4.87;;;;;;;20.34;67.79;99985.28;4437590;32;33372;-79
2022/08/31 05:22:42;;;;;;;10.45;5.30;;;;;;;20.46;67.19;99989.75;4430716;32;33838;-78
2022/08/31 05:25:10;;;;;;;6.53;4.35;;;;;;;20.56;66.91;99994.19;4434421;32;33920;-78
2022/08/31 05:27:40;;;;;;;8.07;5.15;;;;;;;21.04;65.30;99983.13;4435085;32;33662;-79
2022/08/31 05:30:09;;;;;;;10.65;5.37;;;;;;;21.27;64.58;99981.47;4434798;32;35259;-76
2022/08/31 05:32:39;;;;;;;10.38;5.10;;;;;;;21.59;63.42;99983.34;4435479;32;33875;-78
2022/08/31 05:35:09;;;;;;;10.70;5.10;;;;;;;21.70;62.80;99991.31;4436779;32;33657;-77
2022/08/31 05:37:38;;;;;;;9.98;4.97;;;;;;;21.44;63.90;99994.75;4435633;32;34390;-76
2022/08/31 05:40:07;;;;;;;11.32;5.15;;;;;;;21.65;63.55;99993.91;4436281;32;34361;-76
2022/08/31 05:42:35;;;;;;;9.68;4.90;;;;;;;21.65;64.04;99991.28;4422130;32;34534;-78
2022/08/31 05:45:03;;;;;;;10.38;5.20;;;;;;;22.27;60.77;99988.75;4437655;32;33872;-77
2022/08/31 05:47:30;;;;;;;12.20;5.10;;;;;;;22.49;59.59;99985.25;4434521;32;34133;-78
2022/08/31 05:49:58;;;;;;;11.27;4.78;;;;;;;22.38;59.69;99987.00;4436152;32;33497;-78
2022/08/31 05:52:27;;;;;;;7.85;4.80;;;;;;;22.53;59.42;99986.13;4423762;32;33960;-76
2022/08/31 05:54:55;;;;;;;8.60;4.43;;;;;;;22.36;60.15;99983.50;4429924;32;33980;-76
2022/08/31 05:57:22;;;;;;;8.00;4.80;;;;;;;22.43;59.95;99987.91;4435751;32;34427;-76
2022/08/31 05:59:54;;;;;;;10.38;4.78;;;;;;;22.31;60.31;99987.88;4422712;32;32213;-77
2022/08/31 06:02:26;;;;;;;9.57;4.55;;;;;;;22.51;59.40;99983.47;4429391;32;33571;-78
2022/08/31 06:04:56;;;;;;;9.35;4.03;;;;;;;22.62;59.03;99979.94;4436103;32;34048;-78
2022/08/31 06:07:26;;;;;;;10.05;4.70;;;;;;;22.56;59.77;99987.00;4434040;32;33160;-79
2022/08/31 06:09:54;;;;;;;12.80;5.10;;;;;;;22.94;58.40;99988.66;4426037;32;34227;-78
2022/08/31 06:12:24;;;;;;;8.65;4.55;;;;;;;22.45;59.81;99994.06;4433883;32;33757;-80
2022/08/31 06:14:54;;;;;;;8.02;4.22;;;;;;;22.42;59.76;99996.69;4435109;32;35073;-78
2022/08/31 06:17:23;;;;;;;9.27;4.28;;;;;;;22.77;58.10;99998.41;4431965;32;32636;-78
2022/08/31 06:19:51;;;;;;;8.10;4.07;;;;;;;22.64;57.55;99992.28;4436624;32;33440;-76
2022/08/31 06:22:19;;;;;;;8.73;4.12;;;;;;;22.80;56.98;100003.69;4437049;32;33667;-77
2022/08/31 06:24:47;;;;;;;7.43;4.10;;;;;;;23.25;55.75;100001.81;4438170;32;34732;-79
2022/08/31 06:27:15;;;;;;;9.57;4.07;;;;;;;23.51;54.96;99998.22;4436461;32;34436;-77
2022/08/31 06:29:43;;;;;;;5.82;3.55;;;;;;;23.39;54.52;99996.47;4437532;32;34043;-77
2022/08/31 06:32:12;;;;;;;7.00;3.70;;;;;;;23.71;54.12;99998.97;4435934;32;33815;-77
2022/08/31 06:34:41;;;;;;;8.23;3.42;;;;;;;23.52;52.60;99998.16;4439156;32;34173;-76
2022/08/31 06:37:11;;;;;;;9.48;3.70;;;;;;;23.25;52.41;100004.47;4443352;32;34987;-78
2022/08/31 06:39:46;;;;;;;6.65;3.50;;;;;;;23.49;51.95;100000.84;4433587;32;34030;-77
2022/08/31 06:42:14;;;;;;;6.28;3.50;;;;;;;23.53;50.13;100001.72;4433702;32;33903;-77
2022/08/31 06:44:44;;;;;;;6.20;3.67;;;;;;;23.51;49.79;99998.22;4434965;32;34651;-79
2022/08/31 06:47:14;;;;;;;9.15;3.60;;;;;;;23.56;50.06;100004.31;4433904;32;34366;-78
2022/08/31 06:49:41;;;;;;;8.27;3.58;;;;;;;23.64;49.60;99996.34;4435170;32;33258;-79
2022/08/31 06:52:09;;;;;;;5.07;3.17;;;;;;;23.92;47.99;99999.75;4428017;32;33204;-80
2022/08/31 06:54:37;;;;;;;6.35;3.17;;;;;;;23.35;49.31;99995.63;4435146;32;33706;-78
2022/08/31 06:57:06;;;;;;;4.62;2.92;;;;;;;23.79;48.01;99996.31;4431577;32;32256;-79
2022/08/31 06:59:34;;;;;;;7.30;3.50;;;;;;;23.67;48.95;100007.81;4435563;32;31996;-77
2022/08/31 07:02:03;;;;;;;5.85;3.28;;;;;;;24.13;47.03;100010.19;4437397;32;33917;-78
2022/08/31 07:04:34;;;;;;;6.45;3.22;;;;;;;24.21;47.37;100015.44;4435246;32;33815;-78
2022/08/31 07:07:03;;;;;;;5.85;3.03;;;;;;;24.11;48.20;100017.25;4434263;32;32959;-77
2022/08/31 07:09:32;;;;;;;6.22;3.05;;;;;;;24.24;46.65;100010.13;4437219;32;34055;-76
2022/08/31 07:12:00;;;;;;;8.98;3.22;;;;;;;24.30;47.08;100020.66;4430802;32;34547;-79
2022/08/31 07:14:28;;;;;;;10.25;3.60;;;;;;;24.27;47.35;100020.66;4434201;32;34398;-77
2022/08/31 07:16:57;;;;;;;9.60;3.47;;;;;;;24.83;46.23;100009.63;4435533;32;34010;-78
2022/08/31 07:19:25;;;;;;;6.85;3.37;;;;;;;24.82;46.69;100021.09;4437090;32;33926;-77
2022/08/31 07:21:57;;;;;;;7.85;3.65;;;;;;;24.72;46.31;100020.31;4428741;32;32252;-78
2022/08/31 07:24:29;;;;;;;8.93;3.40;;;;;;;25.00;46.09;100022.69;4433601;32;33841;-77
2022/08/31 07:26:59;;;;;;;5.70;3.20;;;;;;;24.72;46.84;100028.25;4433271;32;33627;-79
2022/08/31 07:29:30;;;;;;;7.35;3.40;;;;;;;25.27;46.02;100022.41;4432911;32;34138;-78
2022/08/31 07:31:58;;;;;;;7.82;3.25;;;;;;;25.15;46.17;100022.53;4426796;32;33871;-78
2022/08/31 07:34:28;;;;;;;7.87;3.47;;;;;;;25.11;46.22;100015.47;4439594;32;34793;-77
2022/08/31 07:42:43;;;;;;;6.85;3.20;;;;;;;25.04;46.42;100019.13;4418898;32;32953;-77
2022/08/31 07:45:23;;;;;;;5.18;3.15;;;;;;;25.30;46.14;100010.88;4437780;32;33917;-77
2022/08/31 07:47:59;;;;;;;6.35;3.28;;;;;;;25.56;44.96;100010.56;4431272;32;34064;-77
2022/08/31 07:50:30;;;;;;;6.40;2.80;;;;;;;25.89;44.97;100000.37;4433238;32;33658;-77
2022/08/31 07:52:59;;;;;;;7.90;3.72;;;;;;;25.78;44.86;99997.00;4427718;32;34654;-80
2022/08/31 07:55:28;;;;;;;6.32;3.12;;;;;;;26.07;44.13;100004.56;4432586;32;33890;-80
2022/08/31 07:57:57;;;;;;;7.18;3.50;;;;;;;26.57;43.38;100000.19;4434264;32;33712;-76
2022/08/31 08:00:27;;;;;;;5.60;3.10;;;;;;;26.65;42.76;100006.25;4434678;32;33634;-78
2022/08/31 08:03:00;;;;;;;10.07;3.28;;;;;;;27.18;40.83;99998.19;4432156;32;33796;-77
2022/08/31 08:05:37;;;;;;;8.32;3.20;;;;;;;28.97;37.77;99999.31;4437293;32;34820;-78
2022/08/31 08:08:07;;;;;;;6.97;2.90;;;;;;;30.58;35.11;100001.56;4437708;32;34509;-77
2022/08/31 08:10:42;;;;;;;7.15;2.85;;;;;;;31.90;32.58;99994.00;4431708;32;33132;-78
2022/08/31 08:13:18;;;;;;;6.62;2.87;;;;;;;33.13;30.65;99984.38;4429299;32;34575;-79
2022/08/31 08:15:49;;;;;;;5.82;2.97;;;;;;;33.23;29.91;99988.41;4422295;32;33665;-79
2022/08/31 08:18:19;;;;;;;6.07;2.72;;;;;;;33.98;28.83;99978.56;4436480;32;34723;-78
2022/08/31 08:20:48;;;;;;;6.72;3.00;;;;;;;35.23;27.50;99975.75;4436358;32;33442;-78
2022/08/31 08:23:17;;;;;;;6.10;2.67;;;;;;;35.26;27.18;99975.59;4429006;32;33780;-77
2022/08/31 08:26:00;;;;;;;7.10;2.17;;;;;;;35.26;26.36;99981.00;4421308;32;32388;-79
2022/08/31 08:28:29;;;;;;;4.72;2.40;;;;;;;35.86;25.48;99976.78;4432129;32;33710;-79
2022/08/31 08:31:16;;;;;;;6.62;2.90;;;;;;;35.87;24.38;99971.28;4437403;32;33392;-79
2022/08/31 08:33:44;;;;;;;4.85;2.65;;;;;;;34.81;27.00;99969.91;4421141;32;33751;-80
2022/08/31 08:36:17;;;;;;;6.75;2.45;;;;;;;34.66;26.71;99966.19;4431815;32;34721;-79
2022/08/31 08:38:49;;;;;;;5.47;2.65;;;;;;;35.09;26.13;99962.16;4436764;32;33682;-79
2022/08/31 08:41:20;;;;;;;7.95;2.83;;;;;;;35.07;26.45;99964.06;4435230;32;33529;-80
2022/08/31 08:43:55;;;;;;;3.62;2.40;;;;;;;34.58;25.72;99967.53;4439853;32;33921;-80
2022/08/31 08:46:37;;;;;;;7.30;2.58;;;;;;;35.09;25.69;99968.41;4435702;32;33623;-78
2022/08/31 08:49:13;;;;;;;5.30;2.78;;;;;;;34.20;26.48;99971.22;4428669;32;33826;-78
2022/08/31 08:51:42;;;;;;;6.03;2.72;;;;;;;33.88;26.39;99968.31;4430934;32;33998;-78
2022/08/31 08:54:14;;;;;;;6.78;2.70;;;;;;;33.60;26.79;99962.50;4436452;32;34408;-77
2022/08/31 08:56:46;;;;;;;7.07;2.50;;;;;;;33.85;26.18;99963.06;4425558;32;33694;-77
2022/08/31 08:59:15;;;;;;;5.45;2.60;;;;;;;33.52;26.85;99949.44;4434737;32;33972;-78
2022/08/31 09:01:48;;;;;;;5.22;2.62;;;;;;;32.41;28.56;99964.25;4436505;32;33335;-78
2022/08/31 09:04:44;;;;;;;4.45;2.50;;;;;;;32.28;28.23;99959.41;4424108;32;33865;-79
2022/08/31 09:07:36;;;;;;;7.20;2.33;;;;;;;32.46;28.08;99955.06;4423528;32;31665;-79
2022/08/31 09:10:16;;;;;;;5.35;2.60;;;;;;;31.83;28.96;99952.31;4432633;32;33787;-80
2022/08/31 09:13:29;;;;;;;4.85;2.53;;;;;;;31.00;30.71;99950.13;4433331;32;32970;-79
2022/08/31 09:16:09;;;;;;;5.75;2.50;;;;;;;31.66;30.20;99954.78;4390799;32;33816;-78
2022/08/31 09:18:53;;;;;;;5.07;2.70;;;;;;;31.91;28.97;99950.22;4390026;32;33804;-78
2022/08/31 09:21:24;;;;;;;8.75;2.60;;;;;;;31.48;30.77;99941.19;4416428;32;33567;-77
2022/08/31 09:24:00;;;;;;;5.95;2.78;;;;;;;31.50;30.20;99944.69;4423894;32;33428;-77
2022/08/31 09:26:45;;;;;;;5.50;2.75;;;;;;;31.66;30.65;99936.03;4424626;32;34663;-79
2022/08/31 09:29:23;;;;;;;6.47;2.80;;;;;;;31.80;30.23;99933.69;4435392;32;33915;-77
2022/08/31 09:32:06;;;;;;;6.30;2.60;;;;;;;32.40;28.75;99919.63;4422175;32;34076;-79
2022/08/31 09:34:40;;;;;;;7.55;2.70;;;;;;;32.24;30.11;99925.66;4423173;32;34340;-77
2022/08/31 09:37:15;;;;;;;5.95;2.42;;;;;;;31.95;29.21;99929.53;4431896;32;33851;-77
2022/08/31 09:39:46;;;;;;;4.05;2.37;;;;;;;32.30;27.95;99920.00;4435556;32;35072;-77
2022/08/31 09:42:30;;;;;;;7.72;2.65;;;;;;;32.44;27.96;99915.88;4433465;32;33733;-78
2022/08/31 09:45:08;;;;;;;5.95;2.58;;;;;;;32.56;28.30;99917.13;4431452;32;33287;-79
2022/08/31 09:47:50;;;;;;;6.12;2.85;;;;;;;32.32;27.52;99917.28;4425540;32;33782;-77
2022/08/31 09:50:31;;;;;;;5.78;2.70;;;;;;;32.81;28.07;99914.25;4424627;32;34115;-77
2022/08/31 09:56:21;;;;;;;4.82;2.60;;;;;;;32.90;27.15;99913.84;4430388;32;34008;-76
2022/08/31 09:58:51;;;;;;;5.70;2.35;;;;;;;33.17;25.72;99905.47;4426316;32;34193;-79
2022/08/31 10:01:43;;;;;;;5.25;2.60;;;;;;;32.39;27.15;99907.13;4427957;32;33954;-77
2022/08/31 10:04:18;;;;;;;5.50;2.67;;;;;;;33.18;26.52;99899.16;4430235;32;33932;-78
2022/08/31 10:07:08;;;;;;;4.43;2.72;;;;;;;32.41;27.23;99899.91;4435251;32;33977;-78
2022/08/31 10:09:43;;;;;;;8.27;2.85;;;;;;;33.17;27.53;99892.94;4433009;32;34520;-77
2022/08/31 10:12:38;;;;;;;4.45;2.53;;;;;;;33.77;26.04;99889.19;4434773;32;33933;-78
2022/08/31 10:15:19;;;;;;;3.92;2.33;;;;;;;33.43;27.06;99893.47;4418604;32;33767;-76
2022/08/31 10:18:01;;;;;;;7.82;2.50;;;;;;;32.95;26.86;99892.16;4425694;32;33205;-76
2022/08/31 10:20:34;;;;;;;5.03;2.87;;;;;;;33.03;26.67;99887.28;4433180;32;33795;-77
2022/08/31 10:23:17;;;;;;;4.78;2.60;;;;;;;33.07;26.85;99887.09;4430773;32;34726;-81
2022/08/31 10:25:53;;;;;;;6.07;2.47;;;;;;;33.83;26.03;99872.75;4426743;32;32675;-77
2022/08/31 10:28:31;;;;;;;5.10;2.70;;;;;;;34.23;25.89;99876.97;4430895;32;33601;-79
2022/08/31 10:31:06;;;;;;;4.82;2.33;;;;;;;34.42;24.81;99876.00;4430175;32;33603;-79
2022/08/31 10:36:35;;;;;;;3.97;2.42;;;;;;;33.76;25.42;99861.44;4428459;32;33808;-79
2022/08/31 10:39:10;;;;;;;7.40;2.50;;;;;;;33.91;25.86;99858.94;4433140;32;34270;-78
2022/08/31 10:41:43;;;;;;;4.55;2.30;;;;;;;33.67;25.66;99856.53;4426843;32;33390;-79
2022/08/31 10:44:23;;;;;;;6.37;2.60;;;;;;;33.95;25.54;99861.38;4416849;32;33934;-80
2022/08/31 10:46:53;;;;;;;4.32;2.40;;;;;;;34.30;24.55;99849.78;4420214;32;34680;-79
2022/08/31 10:49:21;;;;;;;4.95;2.45;;;;;;;34.39;24.17;99849.28;4419749;32;32534;-80
2022/08/31 10:51:55;;;;;;;4.72;2.40;;;;;;;33.20;26.07;99854.31;4420833;32;33795;-81
2022/08/31 10:54:38;;;;;;;5.53;2.40;;;;;;;33.72;25.15;99851.78;4416596;32;33980;-80
2022/08/31 10:57:31;;;;;;;4.37;2.47;;;;;;;34.26;24.55;99844.53;4420246;32;33062;-79
2022/08/31 11:00:41;;;;;;;4.05;2.53;;;;;;;34.26;24.65;99831.09;4416320;32;32368;-78
2022/08/31 11:03:41;;;;;;;4.00;2.33;;;;;;;33.08;25.69;99834.28;4418560;32;32774;-79
2022/08/31 11:06:17;;;;;;;4.93;2.67;;;;;;;34.16;25.27;99843.28;4420090;32;34112;-80
2022/08/31 11:09:14;;;;;;;7.25;2.78;;;;;;;34.60;24.08;99832.00;4421661;32;33867;-79
2022/08/31 11:11:50;;;;;;;5.30;2.70;;;;;;;34.63;24.61;99837.19;4408838;32;32880;-79
2022/08/31 11:14:48;;;;;;;4.50;2.50;;;;;;;34.33;24.36;99837.03;4420199;32;34028;-80
2022/08/31 11:17:41;;;;;;;5.43;2.50;;;;;;;34.60;23.33;99832.00;4421331;32;34962;-79
2022/08/31 11:20:33;;;;;;;5.60;2.70;;;;;;;35.04;23.56;99833.19;4421105;32;34116;-80
2022/08/31 11:23:35;;;;;;;5.37;3.05;;;;;;;33.14;25.76;99827.78;4420467;32;34375;-79
2022/08/31 11:26:37;;;;;;;5.62;3.12;;;;;;;34.06;24.81;99825.87;4419999;32;32979;-79
2022/08/31 11:29:11;;;;;;;5.10;2.53;;;;;;;33.57;25.40;99817.59;4419469;32;34882;-79
2022/08/31 11:31:40;;;;;;;5.32;2.40;;;;;;;33.99;25.12;99816.41;4421272;32;33951;-79
2022/08/31 11:34:15;;;;;;;6.18;2.60;;;;;;;34.24;24.83;99814.19;4420793;32;33527;-79
2022/08/31 11:36:54;;;;;;;4.35;2.58;;;;;;;33.88;24.48;99808.88;4421006;32;33909;-80
2022/08/31 11:39:44;;;;;;;5.87;2.80;;;;;;;34.16;25.15;99810.19;4421890;32;34753;-79
2022/08/31 11:42:17;;;;;;;6.00;2.58;;;;;;;34.97;23.90;99803.06;4421151;32;34393;-79
2022/08/31 11:44:59;;;;;;;5.20;2.90;;;;;;;33.99;24.74;99802.97;4422082;32;33242;-79
2022/08/31 11:47:26;;;;;;;5.60;2.83;;;;;;;34.08;25.13;99805.19;4420550;32;33713;-79
2022/08/31 11:49:58;;;;;;;6.87;3.12;;;;;;;34.27;24.66;99797.91;4421517;32;33893;-79
2022/08/31 11:52:31;;;;;;;5.07;2.72;;;;;;;33.91;25.21;99805.19;4420078;32;32939;-80
2022/08/31 11:55:08;;;;;;;4.68;2.78;;;;;;;33.86;25.20;99802.72;4422495;32;33300;-81
2022/08/31 11:58:05;;;;;;;5.12;2.60;;;;;;;33.88;25.16;99799.03;4421622;32;32779;-80
2022/08/31 12:01:05;;;;;;;7.28;2.78;;;;;;;33.51;25.86;99802.66;4422249;32;33734;-78
2022/08/31 12:03:44;;;;;;;5.57;2.97;;;;;;;33.82;25.27;99798.44;4422252;32;33505;-81
2022/08/31 12:06:24;;;;;;;5.32;2.50;;;;;;;34.17;24.81;99802.03;4422817;32;33200;-80
2022/08/31 12:09:01;;;;;;;6.80;2.47;;;;;;;34.71;23.91;99803.66;4421078;32;33775;-80
2022/08/31 12:11:47;;;;;;;4.30;2.45;;;;;;;35.01;23.48;99793.00;4421371;32;33794;-79
2022/08/31 12:14:48;;;;;;;4.90;2.95;;;;;;;34.63;24.17;99794.16;4421527;32;33834;-79